sensor_id;sensor_type;location;lat;lon;timestamp;P1;durP1;ratioP1;P2;durP2;ratioP2
47749;SDS011;49810;48.160;10.812;2022-12-18T00:01:35;90.90;;;32.53;;
47749;SDS011;49810;48.160;10.812;2022-12-18T00:04:05;93.50;;;33.05;;
47749;SDS011;49810;48.160;10.812;2022-12-18T00:06:35;90.65;;;31.30;;
47749;SDS011;49810;48.160;10.812;2022-12-18T00:09:05;93.05;;;32.95;;
47749;SDS011;49810;48.160;10.812;2022-12-18T00:11:33;89.38;;;32.28;;
47749;SDS011;49810;48.160;10.812;2022-12-18T00:14:02;85.88;;;32.00;;
47749;SDS011;49810;48.160;10.812;2022-12-18T00:16:30;78.85;;;29.65;;
47749;SDS011;49810;48.160;10.812;2022-12-18T00:18:59;84.72;;;32.13;;
47749;SDS011;49810;48.160;10.812;2022-12-18T00:21:28;93.55;;;34.70;;
47749;SDS011;49810;48.160;10.812;2022-12-18T00:23:58;92.63;;;32.80;;
47749;SDS011;49810;48.160;10.812;2022-12-18T00:26:29;85.70;;;32.53;;
47749;SDS011;49810;48.160;10.812;2022-12-18T00:29:01;98.00;;;33.53;;
47749;SDS011;49810;48.160;10.812;2022-12-18T00:31:31;88.68;;;31.65;;
47749;SDS011;49810;48.160;10.812;2022-12-18T00:34:01;96.82;;;32.47;;
47749;SDS011;49810;48.160;10.812;2022-12-18T00:36:30;81.00;;;30.05;;
47749;SDS011;49810;48.160;10.812;2022-12-18T00:39:02;86.55;;;30.65;;
47749;SDS011;49810;48.160;10.812;2022-12-18T00:41:33;89.95;;;30.30;;
47749;SDS011;49810;48.160;10.812;2022-12-18T00:44:19;85.18;;;30.75;;
47749;SDS011;49810;48.160;10.812;2022-12-18T00:46:47;85.82;;;30.92;;
47749;SDS011;49810;48.160;10.812;2022-12-18T00:49:19;85.90;;;31.02;;
47749;SDS011;49810;48.160;10.812;2022-12-18T00:51:48;83.35;;;29.88;;
47749;SDS011;49810;48.160;10.812;2022-12-18T00:54:17;82.28;;;29.55;;
47749;SDS011;49810;48.160;10.812;2022-12-18T00:56:46;85.90;;;29.80;;
47749;SDS011;49810;48.160;10.812;2022-12-18T00:59:16;79.47;;;30.35;;
47749;SDS011;49810;48.160;10.812;2022-12-18T01:01:45;86.45;;;30.60;;
47749;SDS011;49810;48.160;10.812;2022-12-18T01:04:14;91.85;;;33.28;;
47749;SDS011;49810;48.160;10.812;2022-12-18T01:06:44;89.75;;;32.97;;
47749;SDS011;49810;48.160;10.812;2022-12-18T01:09:12;87.43;;;32.72;;
47749;SDS011;49810;48.160;10.812;2022-12-18T01:11:40;85.97;;;31.58;;
47749;SDS011;49810;48.160;10.812;2022-12-18T01:14:11;94.82;;;31.90;;
47749;SDS011;49810;48.160;10.812;2022-12-18T01:16:39;92.43;;;32.83;;
47749;SDS011;49810;48.160;10.812;2022-12-18T01:19:08;85.95;;;31.70;;
47749;SDS011;49810;48.160;10.812;2022-12-18T01:21:36;89.45;;;33.15;;
47749;SDS011;49810;48.160;10.812;2022-12-18T01:24:04;88.40;;;32.35;;
47749;SDS011;49810;48.160;10.812;2022-12-18T01:26:33;91.38;;;33.25;;
47749;SDS011;49810;48.160;10.812;2022-12-18T01:29:01;87.88;;;32.97;;
47749;SDS011;49810;48.160;10.812;2022-12-18T01:31:32;84.72;;;32.35;;
47749;SDS011;49810;48.160;10.812;2022-12-18T01:34:02;81.13;;;30.75;;
47749;SDS011;49810;48.160;10.812;2022-12-18T01:36:34;75.15;;;30.35;;
47749;SDS011;49810;48.160;10.812;2022-12-18T01:39:06;79.57;;;29.23;;
47749;SDS011;49810;48.160;10.812;2022-12-18T01:41:36;78.40;;;29.98;;
47749;SDS011;49810;48.160;10.812;2022-12-18T01:47:33;78.28;;;29.13;;
47749;SDS011;49810;48.160;10.812;2022-12-18T01:50:05;85.38;;;28.98;;
47749;SDS011;49810;48.160;10.812;2022-12-18T01:52:36;82.10;;;30.38;;
47749;SDS011;49810;48.160;10.812;2022-12-18T01:55:05;85.28;;;30.67;;
47749;SDS011;49810;48.160;10.812;2022-12-18T01:57:34;81.45;;;30.25;;
47749;SDS011;49810;48.160;10.812;2022-12-18T02:00:05;91.20;;;31.23;;
47749;SDS011;49810;48.160;10.812;2022-12-18T02:02:40;74.05;;;29.40;;
47749;SDS011;49810;48.160;10.812;2022-12-18T02:05:09;82.13;;;30.80;;
47749;SDS011;49810;48.160;10.812;2022-12-18T02:07:42;83.60;;;30.10;;
47749;SDS011;49810;48.160;10.812;2022-12-18T02:10:19;83.45;;;31.20;;
47749;SDS011;49810;48.160;10.812;2022-12-18T02:12:56;78.05;;;29.30;;
47749;SDS011;49810;48.160;10.812;2022-12-18T02:15:31;69.28;;;28.48;;
47749;SDS011;49810;48.160;10.812;2022-12-18T02:18:08;70.95;;;27.55;;
47749;SDS011;49810;48.160;10.812;2022-12-18T02:20:42;72.85;;;26.98;;
47749;SDS011;49810;48.160;10.812;2022-12-18T02:23:18;70.65;;;28.42;;
47749;SDS011;49810;48.160;10.812;2022-12-18T02:26:06;74.22;;;29.23;;
47749;SDS011;49810;48.160;10.812;2022-12-18T02:28:43;74.88;;;28.60;;
47749;SDS011;49810;48.160;10.812;2022-12-18T02:31:16;80.03;;;30.50;;
47749;SDS011;49810;48.160;10.812;2022-12-18T02:33:50;80.72;;;30.95;;
47749;SDS011;49810;48.160;10.812;2022-12-18T02:36:23;81.60;;;30.98;;
47749;SDS011;49810;48.160;10.812;2022-12-18T02:38:55;81.25;;;31.02;;
47749;SDS011;49810;48.160;10.812;2022-12-18T02:41:27;81.13;;;29.27;;
47749;SDS011;49810;48.160;10.812;2022-12-18T02:43:57;87.00;;;32.00;;
47749;SDS011;49810;48.160;10.812;2022-12-18T02:46:31;86.05;;;31.15;;
47749;SDS011;49810;48.160;10.812;2022-12-18T02:49:10;87.45;;;32.75;;
47749;SDS011;49810;48.160;10.812;2022-12-18T02:51:49;82.07;;;32.05;;
47749;SDS011;49810;48.160;10.812;2022-12-18T02:54:33;82.88;;;31.80;;
47749;SDS011;49810;48.160;10.812;2022-12-18T02:57:14;78.78;;;32.13;;
47749;SDS011;49810;48.160;10.812;2022-12-18T02:59:49;81.75;;;32.05;;
47749;SDS011;49810;48.160;10.812;2022-12-18T03:02:25;89.60;;;32.60;;
47749;SDS011;49810;48.160;10.812;2022-12-18T03:07:33;72.38;;;27.15;;
47749;SDS011;49810;48.160;10.812;2022-12-18T03:10:08;80.40;;;28.52;;
47749;SDS011;49810;48.160;10.812;2022-12-18T03:12:41;87.57;;;31.63;;
47749;SDS011;49810;48.160;10.812;2022-12-18T03:15:15;85.10;;;31.05;;
47749;SDS011;49810;48.160;10.812;2022-12-18T03:17:52;90.90;;;31.58;;
47749;SDS011;49810;48.160;10.812;2022-12-18T03:20:26;93.05;;;31.73;;
47749;SDS011;49810;48.160;10.812;2022-12-18T03:22:59;86.53;;;32.92;;
47749;SDS011;49810;48.160;10.812;2022-12-18T03:25:31;84.60;;;31.87;;
47749;SDS011;49810;48.160;10.812;2022-12-18T03:28:02;83.63;;;31.15;;
47749;SDS011;49810;48.160;10.812;2022-12-18T03:33:06;86.47;;;30.88;;
47749;SDS011;49810;48.160;10.812;2022-12-18T03:35:43;80.60;;;31.13;;
47749;SDS011;49810;48.160;10.812;2022-12-18T03:38:12;86.63;;;31.65;;
47749;SDS011;49810;48.160;10.812;2022-12-18T03:40:50;82.32;;;31.15;;
47749;SDS011;49810;48.160;10.812;2022-12-18T03:43:28;93.07;;;33.63;;
47749;SDS011;49810;48.160;10.812;2022-12-18T03:46:10;92.63;;;33.45;;
47749;SDS011;49810;48.160;10.812;2022-12-18T03:48:44;86.00;;;32.22;;
47749;SDS011;49810;48.160;10.812;2022-12-18T03:51:18;82.90;;;32.33;;
47749;SDS011;49810;48.160;10.812;2022-12-18T03:53:54;86.85;;;32.70;;
47749;SDS011;49810;48.160;10.812;2022-12-18T03:56:31;85.47;;;33.63;;
47749;SDS011;49810;48.160;10.812;2022-12-18T03:59:05;63.42;;;23.80;;
47749;SDS011;49810;48.160;10.812;2022-12-18T04:01:38;92.97;;;33.10;;
47749;SDS011;49810;48.160;10.812;2022-12-18T04:04:12;85.82;;;32.00;;
47749;SDS011;49810;48.160;10.812;2022-12-18T04:06:43;91.80;;;32.20;;
47749;SDS011;49810;48.160;10.812;2022-12-18T04:09:16;61.47;;;23.80;;
47749;SDS011;49810;48.160;10.812;2022-12-18T04:11:47;82.85;;;31.25;;
47749;SDS011;49810;48.160;10.812;2022-12-18T04:14:17;85.15;;;31.90;;
47749;SDS011;49810;48.160;10.812;2022-12-18T04:16:49;83.88;;;32.22;;
47749;SDS011;49810;48.160;10.812;2022-12-18T04:19:22;82.00;;;31.23;;
47749;SDS011;49810;48.160;10.812;2022-12-18T04:21:52;85.13;;;32.55;;
47749;SDS011;49810;48.160;10.812;2022-12-18T04:24:20;99.15;;;35.08;;
47749;SDS011;49810;48.160;10.812;2022-12-18T04:27:04;106.95;;;36.20;;
47749;SDS011;49810;48.160;10.812;2022-12-18T04:29:40;111.45;;;39.17;;
47749;SDS011;49810;48.160;10.812;2022-12-18T04:32:09;109.28;;;36.83;;
47749;SDS011;49810;48.160;10.812;2022-12-18T04:34:38;107.68;;;34.58;;
47749;SDS011;49810;48.160;10.812;2022-12-18T04:37:07;103.75;;;36.00;;
47749;SDS011;49810;48.160;10.812;2022-12-18T04:39:35;94.60;;;32.92;;
47749;SDS011;49810;48.160;10.812;2022-12-18T04:42:09;94.70;;;32.17;;
47749;SDS011;49810;48.160;10.812;2022-12-18T04:44:37;93.88;;;31.52;;
47749;SDS011;49810;48.160;10.812;2022-12-18T04:47:06;87.75;;;31.70;;
47749;SDS011;49810;48.160;10.812;2022-12-18T04:49:35;84.13;;;31.15;;
47749;SDS011;49810;48.160;10.812;2022-12-18T04:52:03;83.28;;;30.30;;
47749;SDS011;49810;48.160;10.812;2022-12-18T04:54:31;83.80;;;30.52;;
47749;SDS011;49810;48.160;10.812;2022-12-18T04:56:59;78.72;;;29.40;;
47749;SDS011;49810;48.160;10.812;2022-12-18T04:59:27;90.22;;;31.52;;
47749;SDS011;49810;48.160;10.812;2022-12-18T05:01:55;87.05;;;29.80;;
47749;SDS011;49810;48.160;10.812;2022-12-18T05:04:27;85.65;;;30.00;;
47749;SDS011;49810;48.160;10.812;2022-12-18T05:06:55;84.03;;;30.45;;
47749;SDS011;49810;48.160;10.812;2022-12-18T05:09:23;90.07;;;32.72;;
47749;SDS011;49810;48.160;10.812;2022-12-18T05:11:51;84.95;;;29.40;;
47749;SDS011;49810;48.160;10.812;2022-12-18T05:14:20;82.97;;;27.35;;
47749;SDS011;49810;48.160;10.812;2022-12-18T05:16:48;95.68;;;31.15;;
47749;SDS011;49810;48.160;10.812;2022-12-18T05:19:17;92.05;;;31.02;;
47749;SDS011;49810;48.160;10.812;2022-12-18T05:21:46;89.22;;;29.88;;
47749;SDS011;49810;48.160;10.812;2022-12-18T05:24:14;87.20;;;29.80;;
47749;SDS011;49810;48.160;10.812;2022-12-18T05:26:43;89.10;;;30.05;;
47749;SDS011;49810;48.160;10.812;2022-12-18T05:29:11;93.13;;;30.60;;
47749;SDS011;49810;48.160;10.812;2022-12-18T05:31:40;89.03;;;31.10;;
47749;SDS011;49810;48.160;10.812;2022-12-18T05:34:09;97.75;;;32.55;;
47749;SDS011;49810;48.160;10.812;2022-12-18T05:36:38;85.32;;;30.88;;
47749;SDS011;49810;48.160;10.812;2022-12-18T05:39:07;95.40;;;32.08;;
47749;SDS011;49810;48.160;10.812;2022-12-18T05:41:35;93.30;;;31.67;;
47749;SDS011;49810;48.160;10.812;2022-12-18T05:44:03;92.15;;;33.00;;
47749;SDS011;49810;48.160;10.812;2022-12-18T05:46:32;97.97;;;34.00;;
47749;SDS011;49810;48.160;10.812;2022-12-18T05:49:01;93.93;;;34.22;;
47749;SDS011;49810;48.160;10.812;2022-12-18T05:51:29;96.25;;;31.70;;
47749;SDS011;49810;48.160;10.812;2022-12-18T05:53:57;90.43;;;31.63;;
47749;SDS011;49810;48.160;10.812;2022-12-18T05:56:27;104.05;;;36.42;;
47749;SDS011;49810;48.160;10.812;2022-12-18T05:58:55;106.68;;;36.47;;
47749;SDS011;49810;48.160;10.812;2022-12-18T06:01:24;96.88;;;34.42;;
47749;SDS011;49810;48.160;10.812;2022-12-18T06:03:53;85.13;;;29.98;;
47749;SDS011;49810;48.160;10.812;2022-12-18T06:06:23;76.68;;;29.27;;
47749;SDS011;49810;48.160;10.812;2022-12-18T06:08:52;77.75;;;28.75;;
47749;SDS011;49810;48.160;10.812;2022-12-18T06:11:22;82.88;;;30.35;;
47749;SDS011;49810;48.160;10.812;2022-12-18T06:13:53;79.90;;;30.27;;
47749;SDS011;49810;48.160;10.812;2022-12-18T06:16:25;94.97;;;34.35;;
47749;SDS011;49810;48.160;10.812;2022-12-18T06:18:53;79.55;;;29.60;;
47749;SDS011;49810;48.160;10.812;2022-12-18T06:21:23;92.43;;;36.03;;
47749;SDS011;49810;48.160;10.812;2022-12-18T06:23:51;87.53;;;34.58;;
47749;SDS011;49810;48.160;10.812;2022-12-18T06:26:20;99.28;;;38.42;;
47749;SDS011;49810;48.160;10.812;2022-12-18T06:28:55;85.15;;;33.53;;
47749;SDS011;49810;48.160;10.812;2022-12-18T06:31:24;81.78;;;32.72;;
47749;SDS011;49810;48.160;10.812;2022-12-18T06:33:52;85.88;;;35.40;;
47749;SDS011;49810;48.160;10.812;2022-12-18T06:36:21;80.85;;;33.63;;
47749;SDS011;49810;48.160;10.812;2022-12-18T06:38:49;74.68;;;30.10;;
47749;SDS011;49810;48.160;10.812;2022-12-18T06:41:18;73.22;;;27.80;;
47749;SDS011;49810;48.160;10.812;2022-12-18T06:43:48;75.82;;;29.05;;
47749;SDS011;49810;48.160;10.812;2022-12-18T06:46:17;79.40;;;29.13;;
47749;SDS011;49810;48.160;10.812;2022-12-18T06:48:48;76.43;;;28.95;;
47749;SDS011;49810;48.160;10.812;2022-12-18T06:51:18;73.57;;;28.50;;
47749;SDS011;49810;48.160;10.812;2022-12-18T06:53:47;77.57;;;29.50;;
47749;SDS011;49810;48.160;10.812;2022-12-18T06:56:15;70.25;;;27.45;;
47749;SDS011;49810;48.160;10.812;2022-12-18T06:58:43;82.10;;;30.65;;
47749;SDS011;49810;48.160;10.812;2022-12-18T07:01:15;84.13;;;31.33;;
47749;SDS011;49810;48.160;10.812;2022-12-18T07:03:45;94.10;;;35.28;;
47749;SDS011;49810;48.160;10.812;2022-12-18T07:06:14;92.70;;;34.35;;
47749;SDS011;49810;48.160;10.812;2022-12-18T07:08:44;94.40;;;34.50;;
47749;SDS011;49810;48.160;10.812;2022-12-18T07:11:13;79.10;;;29.92;;
47749;SDS011;49810;48.160;10.812;2022-12-18T07:13:41;71.78;;;29.10;;
47749;SDS011;49810;48.160;10.812;2022-12-18T07:16:10;85.32;;;31.30;;
47749;SDS011;49810;48.160;10.812;2022-12-18T07:18:51;70.68;;;26.92;;
47749;SDS011;49810;48.160;10.812;2022-12-18T07:21:19;73.03;;;27.50;;
47749;SDS011;49810;48.160;10.812;2022-12-18T07:23:47;77.03;;;27.73;;
47749;SDS011;49810;48.160;10.812;2022-12-18T07:26:16;73.03;;;26.55;;
47749;SDS011;49810;48.160;10.812;2022-12-18T07:28:46;76.80;;;28.05;;
47749;SDS011;49810;48.160;10.812;2022-12-18T07:31:15;76.82;;;27.73;;
47749;SDS011;49810;48.160;10.812;2022-12-18T07:33:47;77.05;;;29.27;;
47749;SDS011;49810;48.160;10.812;2022-12-18T07:36:17;81.30;;;27.92;;
47749;SDS011;49810;48.160;10.812;2022-12-18T07:38:46;78.68;;;28.92;;
47749;SDS011;49810;48.160;10.812;2022-12-18T07:41:15;70.35;;;27.40;;
47749;SDS011;49810;48.160;10.812;2022-12-18T07:43:45;73.53;;;26.15;;
47749;SDS011;49810;48.160;10.812;2022-12-18T07:46:14;71.75;;;26.35;;
47749;SDS011;49810;48.160;10.812;2022-12-18T07:48:43;72.85;;;26.67;;
47749;SDS011;49810;48.160;10.812;2022-12-18T07:51:15;75.10;;;28.70;;
47749;SDS011;49810;48.160;10.812;2022-12-18T07:53:46;78.18;;;26.90;;
47749;SDS011;49810;48.160;10.812;2022-12-18T07:56:18;67.80;;;25.80;;
47749;SDS011;49810;48.160;10.812;2022-12-18T07:58:56;72.57;;;27.02;;
47749;SDS011;49810;48.160;10.812;2022-12-18T08:01:25;70.82;;;26.55;;
47749;SDS011;49810;48.160;10.812;2022-12-18T08:03:53;68.90;;;26.13;;
47749;SDS011;49810;48.160;10.812;2022-12-18T08:06:23;70.22;;;24.73;;
47749;SDS011;49810;48.160;10.812;2022-12-18T08:08:52;77.50;;;28.58;;
47749;SDS011;49810;48.160;10.812;2022-12-18T08:11:21;76.95;;;28.58;;
47749;SDS011;49810;48.160;10.812;2022-12-18T08:13:50;73.50;;;27.33;;
47749;SDS011;49810;48.160;10.812;2022-12-18T08:16:19;79.45;;;29.58;;
47749;SDS011;49810;48.160;10.812;2022-12-18T08:18:47;86.75;;;32.60;;
47749;SDS011;49810;48.160;10.812;2022-12-18T08:21:17;85.95;;;32.00;;
47749;SDS011;49810;48.160;10.812;2022-12-18T08:23:51;82.63;;;32.53;;
47749;SDS011;49810;48.160;10.812;2022-12-18T08:26:20;87.13;;;33.60;;
47749;SDS011;49810;48.160;10.812;2022-12-18T08:28:49;81.13;;;29.20;;
47749;SDS011;49810;48.160;10.812;2022-12-18T08:31:18;72.45;;;28.90;;
47749;SDS011;49810;48.160;10.812;2022-12-18T08:33:49;71.65;;;28.90;;
47749;SDS011;49810;48.160;10.812;2022-12-18T08:36:17;81.70;;;30.83;;
47749;SDS011;49810;48.160;10.812;2022-12-18T08:38:46;73.05;;;25.80;;
47749;SDS011;49810;48.160;10.812;2022-12-18T08:41:16;78.95;;;29.00;;
47749;SDS011;49810;48.160;10.812;2022-12-18T08:43:45;75.70;;;29.98;;
47749;SDS011;49810;48.160;10.812;2022-12-18T08:46:34;72.22;;;27.63;;
47749;SDS011;49810;48.160;10.812;2022-12-18T08:49:03;67.80;;;26.17;;
47749;SDS011;49810;48.160;10.812;2022-12-18T08:51:32;65.10;;;26.25;;
47749;SDS011;49810;48.160;10.812;2022-12-18T08:54:01;78.68;;;30.83;;
47749;SDS011;49810;48.160;10.812;2022-12-18T08:56:33;72.50;;;27.30;;
47749;SDS011;49810;48.160;10.812;2022-12-18T08:59:01;74.38;;;28.73;;
47749;SDS011;49810;48.160;10.812;2022-12-18T09:01:30;75.15;;;27.63;;
47749;SDS011;49810;48.160;10.812;2022-12-18T09:04:00;74.00;;;27.25;;
47749;SDS011;49810;48.160;10.812;2022-12-18T09:06:28;76.20;;;28.77;;
47749;SDS011;49810;48.160;10.812;2022-12-18T09:08:56;70.35;;;28.00;;
47749;SDS011;49810;48.160;10.812;2022-12-18T09:11:26;72.40;;;28.73;;
47749;SDS011;49810;48.160;10.812;2022-12-18T09:13:57;127.38;;;33.40;;
47749;SDS011;49810;48.160;10.812;2022-12-18T09:16:26;234.10;;;60.33;;
47749;SDS011;49810;48.160;10.812;2022-12-18T09:18:58;149.10;;;48.60;;
47749;SDS011;49810;48.160;10.812;2022-12-18T09:21:28;74.53;;;31.90;;
47749;SDS011;49810;48.160;10.812;2022-12-18T09:24:02;63.17;;;27.33;;
47749;SDS011;49810;48.160;10.812;2022-12-18T09:26:34;63.53;;;24.80;;
47749;SDS011;49810;48.160;10.812;2022-12-18T09:29:05;67.07;;;29.35;;
47749;SDS011;49810;48.160;10.812;2022-12-18T09:31:35;68.95;;;28.80;;
47749;SDS011;49810;48.160;10.812;2022-12-18T09:34:04;66.20;;;27.13;;
47749;SDS011;49810;48.160;10.812;2022-12-18T09:36:34;68.80;;;30.00;;
47749;SDS011;49810;48.160;10.812;2022-12-18T09:39:02;82.97;;;35.28;;
47749;SDS011;49810;48.160;10.812;2022-12-18T09:41:44;65.68;;;26.67;;
47749;SDS011;49810;48.160;10.812;2022-12-18T09:44:18;66.88;;;28.52;;
47749;SDS011;49810;48.160;10.812;2022-12-18T09:46:51;67.68;;;27.98;;
47749;SDS011;49810;48.160;10.812;2022-12-18T09:49:25;67.35;;;27.73;;
47749;SDS011;49810;48.160;10.812;2022-12-18T09:51:59;65.90;;;27.63;;
47749;SDS011;49810;48.160;10.812;2022-12-18T09:57:03;66.03;;;27.10;;
47749;SDS011;49810;48.160;10.812;2022-12-18T09:59:34;70.05;;;27.98;;
47749;SDS011;49810;48.160;10.812;2022-12-18T10:02:15;77.25;;;31.20;;
47749;SDS011;49810;48.160;10.812;2022-12-18T10:04:46;72.40;;;26.88;;
47749;SDS011;49810;48.160;10.812;2022-12-18T10:07:28;76.95;;;30.15;;
47749;SDS011;49810;48.160;10.812;2022-12-18T10:10:07;74.13;;;29.00;;
47749;SDS011;49810;48.160;10.812;2022-12-18T10:12:45;72.15;;;26.73;;
47749;SDS011;49810;48.160;10.812;2022-12-18T10:15:32;65.10;;;26.77;;
47749;SDS011;49810;48.160;10.812;2022-12-18T10:18:13;70.53;;;28.17;;
47749;SDS011;49810;48.160;10.812;2022-12-18T10:20:52;64.78;;;27.45;;
47749;SDS011;49810;48.160;10.812;2022-12-18T10:23:25;63.15;;;26.67;;
47749;SDS011;49810;48.160;10.812;2022-12-18T10:26:01;62.17;;;27.98;;
47749;SDS011;49810;48.160;10.812;2022-12-18T10:28:33;71.32;;;28.38;;
47749;SDS011;49810;48.160;10.812;2022-12-18T10:31:06;60.40;;;26.65;;
47749;SDS011;49810;48.160;10.812;2022-12-18T10:33:40;64.85;;;26.15;;
47749;SDS011;49810;48.160;10.812;2022-12-18T10:36:08;64.35;;;28.50;;
47749;SDS011;49810;48.160;10.812;2022-12-18T10:38:37;62.17;;;27.33;;
47749;SDS011;49810;48.160;10.812;2022-12-18T10:41:06;62.47;;;26.08;;
47749;SDS011;49810;48.160;10.812;2022-12-18T10:46:40;59.33;;;26.20;;
47749;SDS011;49810;48.160;10.812;2022-12-18T10:49:17;60.35;;;24.42;;
47749;SDS011;49810;48.160;10.812;2022-12-18T10:51:48;55.80;;;24.67;;
47749;SDS011;49810;48.160;10.812;2022-12-18T10:54:20;71.07;;;29.08;;
47749;SDS011;49810;48.160;10.812;2022-12-18T10:56:50;53.28;;;22.77;;
47749;SDS011;49810;48.160;10.812;2022-12-18T10:59:18;57.80;;;23.20;;
47749;SDS011;49810;48.160;10.812;2022-12-18T11:01:49;56.85;;;24.17;;
47749;SDS011;49810;48.160;10.812;2022-12-18T11:04:23;52.15;;;23.02;;
47749;SDS011;49810;48.160;10.812;2022-12-18T11:06:57;53.85;;;23.48;;
47749;SDS011;49810;48.160;10.812;2022-12-18T11:11:56;52.28;;;22.70;;
47749;SDS011;49810;48.160;10.812;2022-12-18T11:14:27;55.20;;;24.40;;
47749;SDS011;49810;48.160;10.812;2022-12-18T11:16:58;53.88;;;23.45;;
47749;SDS011;49810;48.160;10.812;2022-12-18T11:19:52;66.40;;;30.42;;
47749;SDS011;49810;48.160;10.812;2022-12-18T11:22:21;59.53;;;26.75;;
47749;SDS011;49810;48.160;10.812;2022-12-18T11:24:53;59.35;;;26.45;;
47749;SDS011;49810;48.160;10.812;2022-12-18T11:27:49;52.90;;;23.67;;
47749;SDS011;49810;48.160;10.812;2022-12-18T11:30:21;54.05;;;25.40;;
47749;SDS011;49810;48.160;10.812;2022-12-18T11:32:52;59.65;;;27.20;;
47749;SDS011;49810;48.160;10.812;2022-12-18T11:35:27;59.83;;;27.10;;
47749;SDS011;49810;48.160;10.812;2022-12-18T11:38:04;56.45;;;24.48;;
47749;SDS011;49810;48.160;10.812;2022-12-18T11:40:40;50.13;;;23.98;;
47749;SDS011;49810;48.160;10.812;2022-12-18T11:43:13;50.35;;;23.88;;
47749;SDS011;49810;48.160;10.812;2022-12-18T11:45:47;56.13;;;26.00;;
47749;SDS011;49810;48.160;10.812;2022-12-18T11:48:21;53.85;;;24.17;;
47749;SDS011;49810;48.160;10.812;2022-12-18T11:50:53;58.60;;;27.23;;
47749;SDS011;49810;48.160;10.812;2022-12-18T11:53:24;53.88;;;23.95;;
47749;SDS011;49810;48.160;10.812;2022-12-18T11:56:00;55.58;;;25.58;;
47749;SDS011;49810;48.160;10.812;2022-12-18T11:58:38;55.80;;;25.30;;
47749;SDS011;49810;48.160;10.812;2022-12-18T12:01:14;49.65;;;23.02;;
47749;SDS011;49810;48.160;10.812;2022-12-18T12:04:00;56.28;;;26.75;;
47749;SDS011;49810;48.160;10.812;2022-12-18T12:06:56;55.30;;;25.63;;
47749;SDS011;49810;48.160;10.812;2022-12-18T12:09:33;53.33;;;24.75;;
47749;SDS011;49810;48.160;10.812;2022-12-18T12:12:13;54.13;;;24.30;;
47749;SDS011;49810;48.160;10.812;2022-12-18T12:14:53;51.03;;;24.25;;
47749;SDS011;49810;48.160;10.812;2022-12-18T12:17:31;45.97;;;22.48;;
47749;SDS011;49810;48.160;10.812;2022-12-18T12:20:08;50.67;;;24.50;;
47749;SDS011;49810;48.160;10.812;2022-12-18T12:22:46;58.95;;;26.67;;
47749;SDS011;49810;48.160;10.812;2022-12-18T12:25:28;62.03;;;27.00;;
47749;SDS011;49810;48.160;10.812;2022-12-18T12:28:05;56.63;;;25.55;;
47749;SDS011;49810;48.160;10.812;2022-12-18T12:30:45;57.75;;;26.27;;
47749;SDS011;49810;48.160;10.812;2022-12-18T12:33:26;55.33;;;26.63;;
47749;SDS011;49810;48.160;10.812;2022-12-18T12:36:10;51.15;;;23.98;;
47749;SDS011;49810;48.160;10.812;2022-12-18T12:38:47;55.08;;;25.70;;
47749;SDS011;49810;48.160;10.812;2022-12-18T12:41:20;56.60;;;26.10;;
47749;SDS011;49810;48.160;10.812;2022-12-18T12:44:13;60.65;;;26.05;;
47749;SDS011;49810;48.160;10.812;2022-12-18T12:46:47;54.80;;;24.98;;
47749;SDS011;49810;48.160;10.812;2022-12-18T12:49:19;61.80;;;27.65;;
47749;SDS011;49810;48.160;10.812;2022-12-18T12:51:58;57.97;;;25.23;;
47749;SDS011;49810;48.160;10.812;2022-12-18T12:54:32;64.13;;;28.25;;
47749;SDS011;49810;48.160;10.812;2022-12-18T12:57:05;57.83;;;26.70;;
47749;SDS011;49810;48.160;10.812;2022-12-18T12:59:41;64.03;;;27.60;;
47749;SDS011;49810;48.160;10.812;2022-12-18T13:02:20;64.63;;;26.55;;
47749;SDS011;49810;48.160;10.812;2022-12-18T13:04:56;78.35;;;35.88;;
47749;SDS011;49810;48.160;10.812;2022-12-18T13:12:55;63.05;;;29.60;;
47749;SDS011;49810;48.160;10.812;2022-12-18T13:15:27;53.13;;;24.67;;
47749;SDS011;49810;48.160;10.812;2022-12-18T13:18:12;53.95;;;25.08;;
47749;SDS011;49810;48.160;10.812;2022-12-18T13:20:47;56.63;;;25.25;;
47749;SDS011;49810;48.160;10.812;2022-12-18T13:23:33;62.78;;;25.83;;
47749;SDS011;49810;48.160;10.812;2022-12-18T13:29:02;58.58;;;25.38;;
47749;SDS011;49810;48.160;10.812;2022-12-18T13:34:28;62.50;;;25.75;;
47749;SDS011;49810;48.160;10.812;2022-12-18T13:40:02;57.00;;;25.17;;
47749;SDS011;49810;48.160;10.812;2022-12-18T13:43:14;69.78;;;29.70;;
47749;SDS011;49810;48.160;10.812;2022-12-18T13:45:49;65.18;;;26.67;;
47749;SDS011;49810;48.160;10.812;2022-12-18T13:48:26;67.13;;;28.60;;
47749;SDS011;49810;48.160;10.812;2022-12-18T13:50:57;71.47;;;29.25;;
47749;SDS011;49810;48.160;10.812;2022-12-18T13:53:30;76.15;;;29.42;;
47749;SDS011;49810;48.160;10.812;2022-12-18T13:56:04;69.28;;;30.20;;
47749;SDS011;49810;48.160;10.812;2022-12-18T13:58:33;68.80;;;29.10;;
47749;SDS011;49810;48.160;10.812;2022-12-18T14:01:01;69.28;;;28.60;;
47749;SDS011;49810;48.160;10.812;2022-12-18T14:03:31;61.97;;;25.98;;
47749;SDS011;49810;48.160;10.812;2022-12-18T14:06:00;68.93;;;28.20;;
47749;SDS011;49810;48.160;10.812;2022-12-18T14:08:33;66.03;;;26.90;;
47749;SDS011;49810;48.160;10.812;2022-12-18T14:11:07;66.43;;;27.35;;
47749;SDS011;49810;48.160;10.812;2022-12-18T14:13:48;67.40;;;28.25;;
47749;SDS011;49810;48.160;10.812;2022-12-18T14:16:17;75.90;;;30.60;;
47749;SDS011;49810;48.160;10.812;2022-12-18T14:18:46;69.65;;;28.52;;
47749;SDS011;49810;48.160;10.812;2022-12-18T14:21:24;72.15;;;29.90;;
47749;SDS011;49810;48.160;10.812;2022-12-18T14:26:47;63.42;;;25.83;;
47749;SDS011;49810;48.160;10.812;2022-12-18T14:29:21;65.88;;;27.25;;
47749;SDS011;49810;48.160;10.812;2022-12-18T14:32:04;64.70;;;27.15;;
47749;SDS011;49810;48.160;10.812;2022-12-18T14:34:43;62.40;;;27.13;;
47749;SDS011;49810;48.160;10.812;2022-12-18T14:37:12;74.03;;;29.77;;
47749;SDS011;49810;48.160;10.812;2022-12-18T14:39:52;65.03;;;27.52;;
47749;SDS011;49810;48.160;10.812;2022-12-18T14:42:22;82.18;;;33.20;;
47749;SDS011;49810;48.160;10.812;2022-12-18T14:48:08;68.55;;;28.52;;
47749;SDS011;49810;48.160;10.812;2022-12-18T14:50:56;70.97;;;30.70;;
47749;SDS011;49810;48.160;10.812;2022-12-18T14:56:21;70.00;;;30.20;;
47749;SDS011;49810;48.160;10.812;2022-12-18T14:58:52;86.60;;;34.00;;
47749;SDS011;49810;48.160;10.812;2022-12-18T15:01:24;82.82;;;33.92;;
47749;SDS011;49810;48.160;10.812;2022-12-18T15:03:55;66.88;;;27.15;;
47749;SDS011;49810;48.160;10.812;2022-12-18T15:06:25;77.05;;;34.08;;
47749;SDS011;49810;48.160;10.812;2022-12-18T15:11:44;77.18;;;31.25;;
47749;SDS011;49810;48.160;10.812;2022-12-18T15:17:06;70.22;;;26.90;;
47749;SDS011;49810;48.160;10.812;2022-12-18T15:19:44;66.70;;;27.77;;
47749;SDS011;49810;48.160;10.812;2022-12-18T15:22:16;73.85;;;28.63;;
47749;SDS011;49810;48.160;10.812;2022-12-18T15:24:49;67.55;;;27.63;;